createdAt,value
2023-01-29T00:00:28.447Z,101325.22
2023-01-29T00:02:56.906Z,101328.81
2023-01-29T00:05:28.125Z,101325.22
2023-01-29T00:07:57.697Z,101317.63
2023-01-29T00:10:27.040Z,101322.19
2023-01-29T00:12:55.745Z,101313.41
2023-01-29T00:15:24.189Z,101313.41
2023-01-29T00:17:54.013Z,101327.00
2023-01-29T00:20:22.446Z,101317.50
2023-01-29T00:22:50.951Z,101314.91
2023-01-29T00:25:19.704Z,101301.00
2023-01-29T00:27:48.155Z,101311.09
2023-01-29T00:30:19.897Z,101312.78
2023-01-29T00:32:48.888Z,101304.06
2023-01-29T00:35:19.001Z,101309.28
2023-01-29T00:37:47.690Z,101301.38
2023-01-29T00:40:16.713Z,101303.97
2023-01-29T00:43:04.126Z,101299.75
2023-01-29T00:45:32.636Z,101292.84
2023-01-29T00:48:01.121Z,101287.69
2023-01-29T00:50:31.416Z,101289.47
2023-01-29T00:53:00.105Z,101289.56
2023-01-29T00:55:28.619Z,101283.44
2023-01-29T00:57:57.328Z,101285.28
2023-01-29T01:00:26.264Z,101277.56
2023-01-29T01:03:08.633Z,101277.47
2023-01-29T01:05:39.392Z,101269.91
2023-01-29T01:08:29.020Z,101258.75
2023-01-29T01:11:00.819Z,101252.81
2023-01-29T01:13:29.411Z,101259.72
2023-01-29T01:15:57.859Z,101264.00
2023-01-29T01:18:26.399Z,101258.81
2023-01-29T01:21:00.122Z,101247.59
2023-01-29T01:23:28.606Z,101251.09
2023-01-29T01:25:57.079Z,101245.22
2023-01-29T01:28:25.900Z,101258.97
2023-01-29T01:30:54.372Z,101236.81
2023-01-29T01:33:22.843Z,101253.91
2023-01-29T01:35:51.292Z,101247.94
2023-01-29T01:38:21.101Z,101256.53
2023-01-29T01:40:49.523Z,101253.13
2023-01-29T01:43:18.020Z,101251.44
2023-01-29T01:45:46.969Z,101251.44
2023-01-29T01:48:21.132Z,101249.72
2023-01-29T01:50:52.431Z,101237.75
2023-01-29T01:53:28.039Z,101245.50
2023-01-29T01:56:00.468Z,101242.91
2023-01-29T01:58:33.314Z,101240.41
2023-01-29T02:01:02.786Z,101238.63
2023-01-29T02:03:50.215Z,101223.31
2023-01-29T02:06:36.398Z,101222.22
2023-01-29T02:09:28.407Z,101223.03
2023-01-29T02:11:57.582Z,101235.13
2023-01-29T02:14:26.715Z,101236.03
2023-01-29T02:16:55.370Z,101236.03
2023-01-29T02:19:38.010Z,101242.00
2023-01-29T02:22:26.101Z,101248.03
2023-01-29T02:25:32.868Z,101249.63
2023-01-29T02:28:15.523Z,101252.91
2023-01-29T02:30:51.534Z,101246.78
2023-01-29T02:33:27.495Z,101228.94
2023-01-29T02:36:04.746Z,101251.09
2023-01-29T02:38:41.968Z,101249.31
2023-01-29T02:41:16.995Z,101240.66
2023-01-29T02:43:49.366Z,101243.28
2023-01-29T02:46:32.351Z,101252.69
2023-01-29T02:49:09.945Z,101256.09
2023-01-29T02:51:44.798Z,101247.50
2023-01-29T02:54:21.884Z,101245.81
2023-01-29T02:56:55.376Z,101247.59
2023-01-29T02:59:32.796Z,101248.38
2023-01-29T03:09:21.936Z,101242.09
2023-01-29T03:11:54.871Z,101240.38
2023-01-29T03:14:51.699Z,101251.66
2023-01-29T03:17:22.865Z,101237.84
2023-01-29T03:19:52.454Z,101224.09
2023-01-29T03:22:23.448Z,101233.47
2023-01-29T03:25:12.007Z,101230.88
2023-01-29T03:28:03.728Z,101234.34
2023-01-29T03:30:55.308Z,101216.06
2023-01-29T03:33:27.665Z,101236.78
2023-01-29T03:36:02.698Z,101235.06
2023-01-29T03:38:32.330Z,101237.63
2023-01-29T03:41:06.528Z,101242.75
2023-01-29T03:43:41.317Z,101235.88
2023-01-29T03:46:19.470Z,101239.22
2023-01-29T03:48:56.614Z,101243.56
2023-01-29T03:51:31.772Z,101229.94
2023-01-29T03:54:09.648Z,101234.28
2023-01-29T03:56:57.828Z,101235.16
2023-01-29T03:59:39.583Z,101214.25
2023-01-29T04:02:14.651Z,101209.16
2023-01-29T04:04:46.837Z,101210.06
2023-01-29T04:07:19.344Z,101216.06
2023-01-29T04:09:51.450Z,101213.53
2023-01-29T04:12:26.573Z,101207.38
2023-01-29T04:14:56.232Z,101206.47
2023-01-29T04:17:33.156Z,101212.56
2023-01-29T04:20:02.616Z,101205.66
2023-01-29T04:22:34.853Z,101210.75
2023-01-29T04:25:08.687Z,101195.47
2023-01-29T04:27:44.676Z,101204.84
2023-01-29T04:30:28.163Z,101198.75
2023-01-29T04:33:12.599Z,101197.84
2023-01-29T04:36:00.236Z,101196.13
2023-01-29T04:38:41.128Z,101192.66
2023-01-29T04:41:16.593Z,101195.25
2023-01-29T04:43:53.395Z,101165.97
2023-01-29T04:46:24.848Z,101176.94
2023-01-29T04:49:14.656Z,101170.22
2023-01-29T04:51:50.868Z,101167.66
2023-01-29T04:54:30.287Z,101157.16
2023-01-29T04:57:06.397Z,101162.34
2023-01-29T04:59:43.070Z,101167.75
2023-01-29T05:02:13.928Z,101163.56
2023-01-29T05:04:46.990Z,101156.47
2023-01-29T05:07:16.936Z,101155.91
2023-01-29T05:09:47.180Z,101164.38
2023-01-29T05:12:18.713Z,101171.34
2023-01-29T05:14:49.539Z,101162.69
2023-01-29T05:17:21.592Z,101166.19
2023-01-29T05:19:51.636Z,101160.88
2023-01-29T05:22:22.911Z,101161.78
2023-01-29T05:24:51.836Z,101160.09
2023-01-29T05:27:41.755Z,101137.66
2023-01-29T05:30:11.691Z,101149.69
2023-01-29T05:32:40.156Z,101148.78
2023-01-29T05:35:10.818Z,101149.66
2023-01-29T05:37:39.460Z,101134.97
2023-01-29T05:40:10.005Z,101136.78
2023-01-29T05:42:38.384Z,101148.78
2023-01-29T05:45:07.771Z,101159.28
2023-01-29T05:47:36.286Z,101158.47
2023-01-29T05:50:06.136Z,101155.78
2023-01-29T05:52:36.070Z,101153.19
2023-01-29T05:55:04.603Z,101142.78
2023-01-29T05:57:33.018Z,101148.78
2023-01-29T06:00:01.450Z,101134.97
2023-01-29T06:02:31.814Z,101135.06
2023-01-29T06:05:00.237Z,101140.19
2023-01-29T06:07:28.686Z,101135.09
2023-01-29T06:09:58.494Z,101149.88
2023-01-29T06:12:28.873Z,101141.88
2023-01-29T06:14:57.280Z,101143.56
2023-01-29T06:17:25.693Z,101145.28
2023-01-29T06:19:54.340Z,101158.25
2023-01-29T06:22:22.772Z,101153.16
2023-01-29T06:24:51.279Z,101147.09
2023-01-29T06:27:21.127Z,101140.19
2023-01-29T06:29:49.700Z,101152.41
2023-01-29T06:32:18.333Z,101150.59
2023-01-29T06:34:49.457Z,101153.31
2023-01-29T06:37:18.243Z,101154.19
2023-01-29T06:39:46.634Z,101162.69
2023-01-29T06:42:15.161Z,101171.50
2023-01-29T06:44:46.001Z,101166.19
2023-01-29T06:47:17.399Z,101159.28
2023-01-29T06:49:45.969Z,101168.00
2023-01-29T06:52:14.663Z,101177.59
2023-01-29T06:54:43.141Z,101179.25
2023-01-29T06:57:13.065Z,101175.97
2023-01-29T06:59:41.699Z,101182.00
2023-01-29T07:02:13.166Z,101197.50
2023-01-29T07:04:43.077Z,101201.22
2023-01-29T07:07:13.529Z,101205.38
2023-01-29T07:09:42.758Z,101216.69
2023-01-29T07:12:11.783Z,101214.91
2023-01-29T07:14:40.199Z,101212.50
2023-01-29T07:17:08.954Z,101196.25
2023-01-29T07:19:38.795Z,101199.75
2023-01-29T07:22:07.200Z,101214.22
2023-01-29T07:24:35.785Z,101216.69
2023-01-29T07:27:04.357Z,101221.94
2023-01-29T07:29:32.907Z,101211.53
2023-01-29T07:32:01.620Z,101206.38
2023-01-29T07:34:31.326Z,101217.47
2023-01-29T07:37:01.280Z,101206.31
2023-01-29T07:39:29.856Z,101202.72
2023-01-29T07:41:58.298Z,101181.53
2023-01-29T07:44:26.755Z,101211.25
2023-01-29T07:46:55.309Z,101197.50
2023-01-29T07:49:23.770Z,101202.59
2023-01-29T07:51:52.307Z,101203.38
2023-01-29T07:54:22.327Z,101190.50
2023-01-29T07:56:51.679Z,101209.47
2023-01-29T07:59:20.920Z,101216.28
2023-01-29T08:01:49.513Z,101198.19
2023-01-29T08:04:18.050Z,101193.78
2023-01-29T08:06:46.739Z,101188.59
2023-01-29T08:09:15.351Z,101188.38
2023-01-29T08:11:45.406Z,101185.72
2023-01-29T08:14:13.837Z,101187.53
2023-01-29T08:16:42.666Z,101173.09
2023-01-29T08:19:11.428Z,101181.69
2023-01-29T08:21:39.919Z,101178.28
2023-01-29T08:24:08.751Z,101183.38
2023-01-29T08:26:37.311Z,101184.25
2023-01-29T08:29:07.279Z,101188.38
2023-01-29T08:31:36.090Z,101155.69
2023-01-29T08:34:04.915Z,101166.75
2023-01-29T08:36:33.897Z,101173.66
2023-01-29T08:39:02.825Z,101168.22
2023-01-29T08:41:31.616Z,101160.31
2023-01-29T08:44:01.710Z,101153.31
2023-01-29T08:46:31.755Z,101160.44
2023-01-29T08:49:00.335Z,101141.94
2023-01-29T08:51:28.806Z,101132.72
2023-01-29T08:53:57.654Z,101144.47
2023-01-29T08:56:26.605Z,101146.06
2023-01-29T08:58:55.301Z,101133.94
2023-01-29T09:01:23.774Z,101126.22
2023-01-29T09:03:53.700Z,101136.41
2023-01-29T09:06:22.254Z,101151.09
2023-01-29T09:08:51.655Z,101149.34
2023-01-29T09:11:20.198Z,101145.03
2023-01-29T09:13:48.663Z,101137.22
2023-01-29T09:16:17.281Z,101135.41
2023-01-29T09:18:45.742Z,101143.31
2023-01-29T09:21:15.729Z,101153.63
2023-01-29T09:23:44.273Z,101139.69
2023-01-29T09:26:12.792Z,101143.06
2023-01-29T09:28:41.220Z,101140.41
2023-01-29T09:31:12.526Z,101129.09
2023-01-29T09:33:41.112Z,101140.19
2023-01-29T09:36:10.599Z,101130.69
2023-01-29T09:38:40.510Z,101133.28
2023-01-29T09:41:24.239Z,101137.59
2023-01-29T09:43:57.018Z,101134.88
2023-01-29T09:46:34.299Z,101128.75
2023-01-29T09:49:08.858Z,101124.34
2023-01-29T09:51:42.128Z,101115.50
2023-01-29T09:54:21.302Z,101111.97
2023-01-29T09:56:54.283Z,101101.44
2023-01-29T09:59:24.981Z,101090.06
2023-01-29T10:02:04.878Z,101090.66
2023-01-29T10:04:54.088Z,101068.28
2023-01-29T10:07:39.987Z,101076.50
2023-01-29T10:10:37.523Z,101071.03
2023-01-29T10:13:17.450Z,101067.41
2023-01-29T10:16:06.448Z,101069.88
2023-01-29T10:19:08.001Z,101064.34
2023-01-29T10:21:54.036Z,101068.72
2023-01-29T10:24:30.969Z,101060.81
2023-01-29T10:27:02.732Z,101056.34
2023-01-29T10:29:34.335Z,101050.00
2023-01-29T10:32:06.191Z,101041.16
2023-01-29T10:34:42.468Z,101033.41
2023-01-29T10:37:18.756Z,101035.94
2023-01-29T10:39:47.563Z,101035.69
2023-01-29T10:42:33.600Z,101043.44
2023-01-29T10:45:15.831Z,101042.31
2023-01-29T10:48:10.130Z,101023.97
2023-01-29T10:50:49.218Z,101037.69
2023-01-29T10:53:31.146Z,101034.06
2023-01-29T10:56:21.816Z,101027.75
2023-01-29T10:58:55.190Z,101027.59
2023-01-29T11:01:23.844Z,101027.38
2023-01-29T11:03:59.739Z,101018.50
2023-01-29T11:06:32.360Z,101014.72
2023-01-29T11:09:12.608Z,101014.56
2023-01-29T11:11:45.867Z,101005.69
2023-01-29T11:14:23.069Z,100999.44
2023-01-29T11:16:51.777Z,100989.78
2023-01-29T11:19:38.227Z,100990.41
2023-01-29T11:22:09.817Z,100987.66
2023-01-29T11:24:41.046Z,100993.50
2023-01-29T11:27:18.752Z,100996.13
2023-01-29T11:29:50.819Z,100997.75
2023-01-29T11:32:29.978Z,100974.97
2023-01-29T11:35:01.999Z,100963.75
2023-01-29T11:37:37.247Z,100966.06
2023-01-29T11:40:41.471Z,100969.16
2023-01-29T11:43:23.162Z,100975.00
2023-01-29T11:45:55.538Z,100962.63
2023-01-29T11:48:33.526Z,100951.16
2023-01-29T11:51:05.590Z,100940.94
2023-01-29T11:53:38.899Z,100931.03
2023-01-29T11:56:20.089Z,100927.56
2023-01-29T11:58:51.960Z,100929.34
2023-01-29T12:01:32.087Z,100924.75
2023-01-29T12:04:01.855Z,100920.44
2023-01-29T12:06:37.338Z,100917.69
2023-01-29T12:09:17.598Z,100915.84
2023-01-29T12:11:46.251Z,100912.06
2023-01-29T12:14:30.305Z,100909.53
2023-01-29T12:17:02.913Z,100901.75
2023-01-29T12:19:39.759Z,100901.16
2023-01-29T12:22:17.342Z,100885.50
2023-01-29T12:24:55.638Z,100892.34
2023-01-29T12:27:31.889Z,100875.59
2023-01-29T12:30:07.781Z,100858.00
2023-01-29T12:32:47.250Z,100851.84
2023-01-29T12:35:24.737Z,100856.25
2023-01-29T12:38:01.172Z,100869.03
2023-01-29T12:40:34.449Z,100850.25
2023-01-29T12:43:12.782Z,100866.88
2023-01-29T12:45:45.381Z,100855.59
2023-01-29T12:48:25.054Z,100860.84
2023-01-29T12:50:55.227Z,100851.97
2023-01-29T12:53:32.213Z,100850.22
2023-01-29T12:56:04.944Z,100848.38
2023-01-29T12:58:37.767Z,100847.47
2023-01-29T13:01:15.735Z,100827.81
2023-01-29T13:03:56.503Z,100828.47
2023-01-29T13:06:32.063Z,100817.53
2023-01-29T13:09:04.926Z,100831.78
2023-01-29T13:11:40.119Z,100819.84
2023-01-29T13:14:15.794Z,100813.44
2023-01-29T13:16:48.099Z,100812.69
2023-01-29T13:19:24.532Z,100810.84
2023-01-29T13:21:55.850Z,100812.69
2023-01-29T13:24:27.318Z,100828.19
2023-01-29T13:26:56.206Z,100814.38
2023-01-29T13:29:30.085Z,100820.44
2023-01-29T13:32:01.624Z,100816.06
2023-01-29T13:34:33.949Z,100819.59
2023-01-29T13:37:04.782Z,100815.13
2023-01-29T13:39:37.773Z,100826.34
2023-01-29T13:42:22.677Z,100816.06
2023-01-29T13:44:55.463Z,100816.06
2023-01-29T13:47:28.299Z,100809.97
2023-01-29T13:50:03.839Z,100809.06
2023-01-29T13:52:41.213Z,100798.53
2023-01-29T13:55:24.174Z,100793.38
2023-01-29T13:57:56.272Z,100793.31
2023-01-29T14:01:01.720Z,100793.06
2023-01-29T14:04:10.180Z,100800.06
2023-01-29T14:06:45.519Z,100795.75
2023-01-29T14:09:56.550Z,100790.53
2023-01-29T14:12:43.134Z,100793.22
2023-01-29T14:15:32.584Z,100790.53
2023-01-29T14:18:23.878Z,100784.22
2023-01-29T14:20:59.581Z,100787.81
2023-01-29T14:23:49.456Z,100781.78
2023-01-29T14:26:25.627Z,100781.84
2023-01-29T14:28:59.248Z,100786.78
2023-01-29T14:31:47.211Z,100796.28
2023-01-29T14:34:25.289Z,100781.44
2023-01-29T14:36:59.742Z,100770.41
2023-01-29T14:39:37.659Z,100778.94
2023-01-29T14:42:17.771Z,100767.19
2023-01-29T14:45:11.545Z,100783.63
2023-01-29T14:47:59.824Z,100778.56
2023-01-29T14:50:54.989Z,100772.06
2023-01-29T14:53:50.491Z,100775.19
2023-01-29T14:56:31.944Z,100782.00
2023-01-29T14:59:13.459Z,100771.66
2023-01-29T15:01:48.626Z,100768.72
2023-01-29T15:04:22.732Z,100770.41
2023-01-29T15:06:56.969Z,100756.41
2023-01-29T15:09:37.347Z,100775.47
2023-01-29T15:12:20.701Z,100768.47
2023-01-29T15:15:05.447Z,100779.16
2023-01-29T15:17:42.051Z,100775.78
2023-01-29T15:20:38.677Z,100765.41
2023-01-29T15:23:26.755Z,100767.53
2023-01-29T15:25:58.285Z,100771.44
2023-01-29T15:28:31.136Z,100774.94
2023-01-29T15:31:01.957Z,100777.69
2023-01-29T15:33:31.675Z,100771.72
2023-01-29T15:36:07.454Z,100782.06
2023-01-29T15:38:36.562Z,100771.72
2023-01-29T15:41:17.744Z,100759.91
2023-01-29T15:43:49.372Z,100777.16
2023-01-29T15:46:26.067Z,100778.78
2023-01-29T15:48:56.479Z,100774.06
2023-01-29T15:51:28.513Z,100769.88
2023-01-29T15:53:59.817Z,100779.28
2023-01-29T15:56:31.978Z,100781.34
2023-01-29T15:59:09.366Z,100769.69
2023-01-29T16:01:38.461Z,100771.72
2023-01-29T16:04:07.548Z,100766.50
2023-01-29T16:06:39.374Z,100770.91
2023-01-29T16:09:08.845Z,100759.41
2023-01-29T16:11:38.067Z,100774.75
2023-01-29T16:14:09.133Z,100770.84
2023-01-29T16:16:37.866Z,100769.09
2023-01-29T16:19:15.683Z,100768.34
2023-01-29T16:21:46.384Z,100762.34
2023-01-29T16:24:22.751Z,100760.72
2023-01-29T16:26:53.103Z,100766.88
2023-01-29T16:29:25.105Z,100757.53
2023-01-29T16:32:00.724Z,100762.59
2023-01-29T16:34:32.985Z,100754.00
2023-01-29T16:37:03.363Z,100764.44
2023-01-29T16:39:36.154Z,100754.84
2023-01-29T16:42:23.273Z,100744.03
2023-01-29T16:45:03.787Z,100755.00
2023-01-29T16:47:36.449Z,100748.16
2023-01-29T16:50:25.659Z,100742.34
2023-01-29T16:52:59.355Z,100750.13
2023-01-29T16:55:27.980Z,100754.63
2023-01-29T16:57:57.602Z,100759.63
2023-01-29T17:00:31.293Z,100763.22
2023-01-29T17:03:05.191Z,100741.53
2023-01-29T17:05:36.667Z,100738.81
2023-01-29T17:08:06.193Z,100739.50
2023-01-29T17:10:36.268Z,100734.28
2023-01-29T17:13:07.803Z,100726.00
2023-01-29T17:15:50.928Z,100722.47
2023-01-29T17:18:22.145Z,100725.84
2023-01-29T17:20:53.216Z,100721.47
2023-01-29T17:23:23.408Z,100724.16
2023-01-29T17:25:52.620Z,100720.09
2023-01-29T17:28:25.083Z,100719.94
2023-01-29T17:31:05.925Z,100707.31
2023-01-29T17:33:37.004Z,100713.88
2023-01-29T17:36:05.895Z,100718.34
2023-01-29T17:38:34.920Z,100714.72
2023-01-29T17:41:07.894Z,100703.44
2023-01-29T17:43:36.473Z,100704.28
2023-01-29T17:46:07.350Z,100712.88
2023-01-29T17:48:35.903Z,100701.59
2023-01-29T17:51:06.003Z,100702.69
2023-01-29T17:53:45.585Z,100695.19
2023-01-29T17:56:18.893Z,100698.00
2023-01-29T17:58:47.974Z,100693.66
2023-01-29T18:01:18.663Z,100690.19
2023-01-29T18:03:47.282Z,100669.72
2023-01-29T18:06:27.522Z,100679.69
2023-01-29T18:08:57.701Z,100667.72
2023-01-29T18:11:26.540Z,100668.38
2023-01-29T18:13:55.392Z,100668.53
2023-01-29T18:16:26.341Z,100676.31
2023-01-29T18:18:55.163Z,100670.31
2023-01-29T18:21:23.593Z,100671.31
2023-01-29T18:23:52.498Z,100667.78
2023-01-29T18:26:22.504Z,100668.53
2023-01-29T18:28:51.961Z,100672.06
2023-01-29T18:31:20.453Z,100654.66
2023-01-29T18:33:51.257Z,100658.09
2023-01-29T18:36:19.676Z,100651.91
2023-01-29T18:38:48.131Z,100662.50
2023-01-29T18:41:17.016Z,100654.06
2023-01-29T18:43:45.626Z,100649.00
2023-01-29T18:46:14.310Z,100650.69
2023-01-29T18:48:43.029Z,100645.47
2023-01-29T18:51:13.123Z,100628.47
2023-01-29T18:53:41.851Z,100636.72
2023-01-29T18:56:12.138Z,100636.72
2023-01-29T18:58:40.484Z,100632.44
2023-01-29T19:01:12.237Z,100627.03
2023-01-29T19:03:42.292Z,100629.72
2023-01-29T19:06:13.952Z,100631.50
2023-01-29T19:08:43.179Z,100616.78
2023-01-29T19:11:12.776Z,100616.59
2023-01-29T19:13:43.144Z,100625.38
2023-01-29T19:16:12.847Z,100612.06
2023-01-29T19:18:45.821Z,100618.13
2023-01-29T19:21:20.556Z,100617.38
2023-01-29T19:23:49.454Z,100615.19
2023-01-29T19:26:18.163Z,100621.16
2023-01-29T19:28:46.608Z,100613.34
2023-01-29T19:31:15.155Z,100608.63
2023-01-29T19:33:43.690Z,100611.28
2023-01-29T19:36:13.805Z,100617.53
2023-01-29T19:38:43.845Z,100614.94
2023-01-29T19:41:12.609Z,100609.88
2023-01-29T19:43:43.209Z,100607.09
2023-01-29T19:46:11.853Z,100590.16
2023-01-29T19:48:40.433Z,100605.41
2023-01-29T19:51:12.283Z,100597.47
2023-01-29T19:53:44.048Z,100591.59
2023-01-29T19:56:16.064Z,100593.28
2023-01-29T19:58:45.137Z,100576.13
2023-01-29T20:01:17.026Z,100577.19
2023-01-29T20:03:46.816Z,100577.97
2023-01-29T20:06:18.163Z,100576.28
2023-01-29T20:08:48.013Z,100571.53
2023-01-29T20:11:19.690Z,100580.22
2023-01-29T20:13:49.918Z,100575.91
2023-01-29T20:16:19.496Z,100556.97
2023-01-29T20:18:48.158Z,100564.78
2023-01-29T20:21:20.653Z,100564.13
2023-01-29T20:23:52.019Z,100554.69
2023-01-29T20:26:23.219Z,100551.31
2023-01-29T20:28:51.787Z,100552.41
2023-01-29T20:31:20.351Z,100550.13
2023-01-29T20:33:48.811Z,100564.25
2023-01-29T20:36:17.284Z,100555.78
2023-01-29T20:38:46.136Z,100548.94
2023-01-29T20:41:17.942Z,100551.63
2023-01-29T20:43:51.057Z,100558.59
2023-01-29T20:46:20.056Z,100536.22
2023-01-29T20:48:49.338Z,100545.28
2023-01-29T20:51:19.790Z,100542.84
2023-01-29T20:53:49.412Z,100544.53
2023-01-29T20:56:32.037Z,100540.06
2023-01-29T20:59:06.618Z,100522.31
2023-01-29T21:01:35.105Z,100536.19
2023-01-29T21:04:03.694Z,100544.03
2023-01-29T21:06:36.312Z,100534.41
2023-01-29T21:09:04.868Z,100515.06
2023-01-29T21:11:33.743Z,100511.06
2023-01-29T21:14:02.229Z,100521.47
2023-01-29T21:16:32.420Z,100513.72
2023-01-29T21:19:01.249Z,100503.72
2023-01-29T21:21:29.800Z,100509.44
2023-01-29T21:23:59.253Z,100502.53
2023-01-29T21:26:27.867Z,100504.22
2023-01-29T21:28:56.369Z,100485.16
2023-01-29T21:31:24.935Z,100498.94
2023-01-29T21:33:54.765Z,100490.09
2023-01-29T21:36:23.366Z,100485.97
2023-01-29T21:38:51.754Z,100475.13
2023-01-29T21:41:40.377Z,100486.84
2023-01-29T21:44:08.799Z,100480.75
2023-01-29T21:46:37.318Z,100484.22
2023-01-29T21:49:07.443Z,100480.94
2023-01-29T21:51:35.928Z,100487.22
2023-01-29T21:54:04.428Z,100473.53
2023-01-29T21:56:32.899Z,100470.16
2023-01-29T21:59:02.571Z,100469.31
2023-01-29T22:01:37.373Z,100458.88
2023-01-29T22:04:09.977Z,100465.19
2023-01-29T22:06:38.513Z,100451.16
2023-01-29T22:09:07.052Z,100444.19
2023-01-29T22:11:35.789Z,100435.00
2023-01-29T22:14:04.349Z,100435.00
2023-01-29T22:16:32.779Z,100429.41
2023-01-29T22:19:01.660Z,100436.84
2023-01-29T22:21:31.576Z,100432.63
2023-01-29T22:24:00.376Z,100417.47
2023-01-29T22:26:29.809Z,100430.19
2023-01-29T22:28:58.369Z,100417.31
2023-01-29T22:31:26.892Z,100415.63
2023-01-29T22:33:55.565Z,100419.09
2023-01-29T22:36:24.439Z,100409.06
2023-01-29T22:38:54.488Z,100378.13
2023-01-29T22:41:23.013Z,100394.13
2023-01-29T22:43:51.537Z,100393.28
2023-01-29T22:46:20.082Z,100378.66
2023-01-29T22:48:48.599Z,100383.00
2023-01-29T22:51:17.001Z,100377.81
2023-01-29T22:53:50.302Z,100359.50
2023-01-29T22:56:21.765Z,100350.34
2023-01-29T22:58:52.651Z,100350.41
2023-01-29T23:01:21.941Z,100342.69
2023-01-29T23:03:50.471Z,100343.69
2023-01-29T23:06:19.591Z,100330.59
2023-01-29T23:08:48.397Z,100324.53
2023-01-29T23:11:20.265Z,100321.75
2023-01-29T23:13:51.604Z,100333.03
2023-01-29T23:16:21.520Z,100310.34
2023-01-29T23:18:52.086Z,100307.91
2023-01-29T23:21:21.321Z,100298.59
2023-01-29T23:23:52.803Z,100313.13
2023-01-29T23:26:38.602Z,100304.56
2023-01-29T23:29:08.503Z,100287.09
2023-01-29T23:31:37.006Z,100284.53
2023-01-29T23:34:05.456Z,100274.13
2023-01-29T23:36:33.978Z,100278.34
2023-01-29T23:39:02.520Z,100280.19
2023-01-29T23:41:32.197Z,100275.81
2023-01-29T23:44:00.966Z,100250.84
2023-01-29T23:46:31.007Z,100253.72
2023-01-29T23:48:59.544Z,100244.13
2023-01-29T23:51:28.078Z,100248.53
2023-01-29T23:53:56.855Z,100229.53
2023-01-29T23:56:26.166Z,100234.41
2023-01-29T23:58:56.767Z,100221.63
